Time;durP1;ratioP1;P1;durP2;ratioP2;P2;SDS_P1;SDS_P2;PMS_P1;PMS_P2;Temp;Humidity;BMP_temperature;BMP_pressure;BME280_temperature;BME280_humidity;BME280_pressure;Samples;Min_cycle;Max_cycle;Signal;HPM_P1;HPM_P2
2023/11/29 00:02:12;;;;;;;16.30;7.60;;;-1.30;99.90;-1.70;99554.00;;;;4956348;28;87647;-67
2023/11/29 00:04:38;;;;;;;12.13;6.90;;;-0.90;99.90;-1.70;99565.00;;;;4962294;28;87671;-67
2023/11/29 00:07:04;;;;;;;12.90;7.27;;;-1.30;99.90;-1.70;99561.00;;;;4959016;28;116079;-67
2023/11/29 00:09:29;;;;;;;9.57;7.00;;;-1.20;99.90;-1.70;99565.00;;;;4959479;28;111572;-67
2023/11/29 00:11:55;;;;;;;11.73;6.47;;;-1.30;99.90;-1.60;99550.00;;;;4956736;28;109645;-67
2023/11/29 00:14:21;;;;;;;11.13;6.87;;;-1.20;99.90;-1.60;99543.00;;;;4957968;28;108049;-67
2023/11/29 00:16:46;;;;;;;11.80;7.67;;;-1.20;99.90;-1.60;99547.00;;;;4967379;28;87698;-67
2023/11/29 00:19:12;;;;;;;11.20;6.87;;;-1.20;99.90;-1.60;99533.00;;;;4957322;28;88093;-67
2023/11/29 00:21:42;;;;;;;8.47;5.77;;;-2.00;99.90;-1.60;99529.00;;;;4958334;28;87847;-67
2023/11/29 00:24:08;;;;;;;13.60;7.43;;;-0.20;99.90;-1.60;99536.00;;;;4962837;28;87330;-66
2023/11/29 00:26:34;;;;;;;9.20;6.87;;;-1.00;99.90;-1.50;99541.00;;;;4960952;28;100517;-68
2023/11/29 00:28:59;;;;;;;14.53;7.60;;;-1.20;99.90;-1.50;99532.00;;;;4959801;28;116747;-67
2023/11/29 00:31:25;;;;;;;9.57;6.10;;;-0.20;99.90;-1.60;99525.00;;;;4966791;28;87024;-66
2023/11/29 00:33:51;;;;;;;11.87;5.97;;;-1.20;99.90;-1.60;99522.00;;;;4962403;28;105227;-68
2023/11/29 00:36:17;;;;;;;9.27;6.17;;;-1.20;99.90;-1.70;99524.00;;;;4967741;28;88913;-66
2023/11/29 00:38:43;;;;;;;12.37;6.97;;;-1.70;99.90;-1.70;99529.00;;;;4959212;28;89120;-67
2023/11/29 00:41:08;;;;;;;12.67;6.43;;;-1.20;99.90;-1.80;99520.00;;;;4959998;28;87680;-66
2023/11/29 00:43:37;;;;;;;10.60;6.70;;;-1.40;99.90;-1.80;99527.00;;;;4962989;28;108512;-68
2023/11/29 00:46:04;;;;;;;11.03;7.07;;;-1.40;99.90;-1.90;99525.00;;;;4958331;28;88204;-68
2023/11/29 00:48:30;;;;;;;12.23;6.87;;;-1.40;99.90;-1.90;99523.00;;;;4957026;28;88423;-67
2023/11/29 00:50:57;;;;;;;10.33;6.47;;;-1.50;99.90;-1.90;99530.00;;;;4959493;28;87623;-67
2023/11/29 00:53:23;;;;;;;11.87;7.67;;;-1.40;99.90;-1.90;99521.00;;;;4965945;28;87960;-67
2023/11/29 00:55:49;;;;;;;9.37;5.97;;;-1.40;99.90;-1.90;99520.00;;;;4957108;28;97708;-67
2023/11/29 00:58:15;;;;;;;9.93;6.07;;;-1.40;99.90;-1.90;99517.00;;;;4962145;28;116450;-68
2023/11/29 01:00:40;;;;;;;15.30;7.60;;;-1.40;99.90;-1.90;99532.00;;;;4965347;28;88061;-67
2023/11/29 01:03:06;;;;;;;12.57;6.50;;;-1.50;99.90;-1.90;99525.00;;;;4959020;28;100378;-67
2023/11/29 01:05:32;;;;;;;11.23;7.17;;;-1.40;99.90;-1.80;99518.00;;;;4962536;28;111095;-67
2023/11/29 01:07:58;;;;;;;11.67;6.90;;;-1.50;99.90;-1.80;99517.00;;;;4960143;28;115349;-67
2023/11/29 01:10:24;;;;;;;10.57;6.23;;;-1.40;99.90;-1.80;99528.00;;;;4964934;28;102671;-67
2023/11/29 01:12:49;;;;;;;15.27;7.47;;;-1.40;99.90;-1.80;99523.00;;;;4965161;28;97876;-69
2023/11/29 01:15:15;;;;;;;8.87;5.67;;;-1.30;99.90;-1.80;99526.00;;;;4963148;28;116374;-68
2023/11/29 01:17:41;;;;;;;10.23;6.70;;;-1.40;99.90;-1.70;99513.00;;;;4960608;28;117274;-68
2023/11/29 01:20:07;;;;;;;11.40;6.07;;;-1.30;99.90;-1.70;99512.00;;;;4962725;28;87014;-70
2023/11/29 01:22:33;;;;;;;8.37;5.33;;;-1.30;99.90;-1.70;99527.00;;;;4958031;28;87379;-68
2023/11/29 01:24:59;;;;;;;9.07;5.50;;;-1.30;99.90;-1.70;99519.00;;;;4962754;28;87951;-67
2023/11/29 01:27:29;;;;;;;8.13;6.30;;;-1.30;99.90;-1.70;99513.00;;;;4958955;28;97107;-65
2023/11/29 01:29:54;;;;;;;10.23;6.20;;;-1.20;99.90;-1.70;99519.00;;;;4959007;28;87776;-66
2023/11/29 01:32:20;;;;;;;10.97;6.17;;;-1.30;99.90;-1.70;99511.00;;;;4956489;28;94440;-67
2023/11/29 01:34:46;;;;;;;8.97;6.10;;;-1.30;99.90;-1.70;99511.00;;;;4961570;28;89037;-67
2023/11/29 01:37:13;;;;;;;10.07;6.00;;;-1.30;99.90;-1.70;99509.00;;;;4958567;28;113184;-67
2023/11/29 01:39:44;;;;;;;8.63;5.73;;;-1.40;99.90;-1.70;99505.00;;;;4959883;28;109498;-68
2023/11/29 01:42:11;;;;;;;10.27;5.63;;;-1.40;99.90;-1.70;99511.00;;;;4961352;28;87623;-68
2023/11/29 01:44:36;;;;;;;7.30;5.67;;;-1.30;99.90;-1.70;99514.00;;;;4946849;28;86977;-66
2023/11/29 01:47:08;;;;;;;6.43;4.97;;;-1.30;99.90;-1.70;99513.00;;;;4964116;28;87889;-66
2023/11/29 01:49:34;;;;;;;7.37;4.43;;;-1.30;99.90;-1.70;99522.00;;;;4968621;28;88011;-67
2023/11/29 01:52:01;;;;;;;7.10;4.63;;;-0.80;99.90;-1.70;99511.00;;;;4953409;28;88591;-67
2023/11/29 01:54:27;;;;;;;9.90;5.13;;;-1.30;99.90;-1.70;99509.00;;;;4964868;28;109159;-68
2023/11/29 01:56:53;;;;;;;5.83;4.03;;;-1.20;99.90;-1.70;99518.00;;;;4955778;28;88151;-67
2023/11/29 01:59:22;;;;;;;6.63;4.67;;;-1.30;99.90;-1.80;99516.00;;;;4959005;28;87548;-66
2023/11/29 02:01:48;;;;;;;7.07;4.47;;;-1.30;99.90;-1.80;99507.00;;;;4964080;28;87159;-67
2023/11/29 02:04:14;;;;;;;6.47;4.07;;;-1.30;99.90;-1.80;99508.00;;;;4963092;28;87660;-68
2023/11/29 02:06:43;;;;;;;5.53;3.90;;;-1.40;99.90;-1.90;99505.00;;;;4956783;28;89445;-67
2023/11/29 02:09:09;;;;;;;5.50;4.17;;;-0.80;99.90;-1.90;99501.00;;;;4963020;28;86862;-68
2023/11/29 02:11:41;;;;;;;7.43;4.80;;;-1.50;99.90;-2.00;99501.00;;;;4959615;28;88228;-67
2023/11/29 02:14:07;;;;;;;4.80;3.67;;;-0.60;99.90;-2.00;99501.00;;;;4959814;28;87823;-67
2023/11/29 02:16:34;;;;;;;6.63;4.60;;;-1.60;99.90;-2.10;99498.00;;;;4953968;28;89078;-68
2023/11/29 02:19:00;;;;;;;6.13;3.97;;;-1.00;99.90;-2.10;99496.00;;;;4958411;28;88044;-68
2023/11/29 02:21:26;;;;;;;6.23;4.03;;;-1.60;99.90;-2.10;99497.00;;;;4957996;28;88219;-69
2023/11/29 02:24:02;;;;;;;6.03;3.80;;;-1.70;99.90;-2.10;99497.00;;;;4960452;28;105011;-68
2023/11/29 02:26:28;;;;;;;6.10;4.03;;;-2.00;99.90;-2.10;99480.00;;;;4973749;28;88220;-69
2023/11/29 02:28:54;;;;;;;4.93;3.80;;;-1.70;99.90;-2.20;99473.00;;;;4954675;28;87627;-70
2023/11/29 02:31:19;;;;;;;5.70;3.80;;;-1.80;99.90;-2.20;99477.00;;;;4952598;28;90635;-69
2023/11/29 02:33:45;;;;;;;4.33;3.33;;;-1.80;99.90;-2.30;99476.00;;;;4958351;28;93728;-70
2023/11/29 02:36:11;;;;;;;6.37;4.03;;;-1.90;99.90;-2.40;99461.00;;;;4951231;28;111674;-70
2023/11/29 02:38:37;;;;;;;7.50;3.60;;;-1.90;99.90;-2.40;99470.00;;;;4952454;28;87909;-68
2023/11/29 02:41:03;;;;;;;4.43;3.10;;;-1.40;99.90;-2.40;99460.00;;;;4954769;28;94938;-68
2023/11/29 02:43:28;;;;;;;5.93;3.77;;;-2.00;99.90;-2.50;99452.00;;;;4956325;28;88315;-69
2023/11/29 02:45:54;;;;;;;5.93;3.30;;;-2.00;99.90;-2.60;99461.00;;;;4961021;28;117592;-69
2023/11/29 02:48:20;;;;;;;3.87;3.23;;;-2.10;99.90;-2.60;99460.00;;;;4957807;28;87827;-70
2023/11/29 02:50:46;;;;;;;4.00;3.37;;;-2.10;99.90;-2.70;99460.00;;;;4956376;28;89944;-69
2023/11/29 02:53:12;;;;;;;5.43;3.77;;;-2.30;99.90;-2.80;99455.00;;;;4957388;28;88179;-69
2023/11/29 02:55:37;;;;;;;5.43;3.43;;;-3.00;99.90;-2.90;99451.00;;;;4956462;28;88639;-70
2023/11/29 02:58:03;;;;;;;4.40;3.77;;;-1.00;99.90;-3.00;99449.00;;;;4963058;28;87321;-70
2023/11/29 03:00:30;;;;;;;4.90;3.87;;;-2.10;99.90;-3.10;99449.00;;;;4959832;28;88123;-70
2023/11/29 03:02:57;;;;;;;4.67;3.60;;;-2.50;99.90;-3.10;99438.00;;;;4952782;28;89262;-70
2023/11/29 03:05:24;;;;;;;4.40;3.23;;;-2.60;99.90;-3.20;99455.00;;;;4958369;28;88113;-68
2023/11/29 03:07:50;;;;;;;5.10;3.63;;;-2.60;99.90;-3.30;99441.00;;;;4957253;28;87638;-69
2023/11/29 03:10:16;;;;;;;6.17;4.47;;;-2.70;99.90;-3.30;99449.00;;;;4942497;28;87475;-69
2023/11/29 03:12:41;;;;;;;4.97;4.10;;;-2.70;99.90;-3.30;99435.00;;;;4954538;28;87314;-69
2023/11/29 03:15:09;;;;;;;5.07;3.67;;;-2.90;99.90;-3.40;99440.00;;;;4962076;28;87874;-68
2023/11/29 03:17:35;;;;;;;6.73;4.40;;;-1.90;99.90;-3.40;99445.00;;;;4956169;28;87313;-68
2023/11/29 03:20:05;;;;;;;7.60;4.07;;;-2.90;99.90;-3.50;99441.00;;;;4958722;28;87379;-68
2023/11/29 03:22:31;;;;;;;5.33;3.70;;;-3.00;99.90;-3.50;99438.00;;;;4953287;28;87054;-68
2023/11/29 03:24:57;;;;;;;7.27;4.00;;;-2.90;99.90;-3.50;99424.00;;;;4961925;28;93012;-66
2023/11/29 03:27:23;;;;;;;4.93;3.67;;;-3.10;99.90;-3.60;99419.00;;;;4958069;28;88203;-68
2023/11/29 03:29:49;;;;;;;5.67;3.97;;;-3.10;99.90;-3.70;99417.00;;;;4965256;28;88704;-68
2023/11/29 03:32:15;;;;;;;5.80;3.60;;;-3.00;99.90;-3.70;99424.00;;;;4961849;28;88538;-68
2023/11/29 03:34:44;;;;;;;4.20;3.73;;;-3.20;99.90;-3.80;99411.00;;;;4955974;28;104508;-68
2023/11/29 03:37:09;;;;;;;9.37;4.13;;;-3.20;99.90;-3.80;99409.00;;;;4959857;28;87791;-68
2023/11/29 03:39:35;;;;;;;5.20;3.90;;;-3.30;99.90;-3.90;99403.00;;;;4962035;28;87535;-67
2023/11/29 03:42:02;;;;;;;6.73;4.20;;;-2.20;99.90;-3.90;99408.00;;;;4967594;28;87746;-67
2023/11/29 03:44:27;;;;;;;5.80;4.10;;;-3.10;99.90;-4.00;99413.00;;;;4961110;28;88439;-68
2023/11/29 03:46:53;;;;;;;6.07;4.37;;;-3.40;99.90;-4.00;99392.00;;;;4959608;28;103593;-67
2023/11/29 03:49:22;;;;;;;4.77;3.93;;;-3.40;99.90;-4.00;99397.00;;;;4962567;28;107404;-68
2023/11/29 03:51:47;;;;;;;6.93;3.80;;;-3.40;99.90;-4.00;99396.00;;;;4964095;28;87710;-68
2023/11/29 03:54:13;;;;;;;6.73;4.17;;;-3.50;99.90;-4.10;99398.00;;;;4957619;28;88689;-67
2023/11/29 03:56:39;;;;;;;5.90;4.00;;;-3.60;99.90;-4.20;99392.00;;;;4959035;28;109510;-68
2023/11/29 03:59:05;;;;;;;7.83;4.30;;;-3.60;99.90;-4.20;99386.00;;;;4958938;28;107817;-67
2023/11/29 04:01:32;;;;;;;6.87;4.47;;;-3.50;99.90;-4.20;99393.00;;;;4961153;28;116892;-68
2023/11/29 04:03:58;;;;;;;6.53;4.73;;;-3.70;99.90;-4.20;99387.00;;;;4963212;28;88405;-66
2023/11/29 04:06:27;;;;;;;10.30;4.43;;;-3.70;99.90;-4.30;99389.00;;;;4964990;28;87699;-67
2023/11/29 04:08:54;;;;;;;6.70;4.80;;;-3.70;99.90;-4.30;99388.00;;;;4965507;28;87610;-66
2023/11/29 04:11:20;;;;;;;6.93;4.87;;;-3.80;99.90;-4.30;99382.00;;;;4966859;28;86973;-67
2023/11/29 04:13:46;;;;;;;9.90;5.57;;;-3.80;99.90;-4.40;99390.00;;;;4963282;28;92149;-67
2023/11/29 04:16:28;;;;;;;8.03;4.87;;;-4.20;99.90;-4.40;99375.00;;;;4964304;28;87352;-67
2023/11/29 04:18:54;;;;;;;7.57;5.33;;;-3.90;99.90;-4.40;99376.00;;;;4965902;28;88600;-67
2023/11/29 04:21:25;;;;;;;8.63;5.13;;;-3.90;99.90;-4.40;99380.00;;;;4959705;28;87717;-66
2023/11/29 04:23:52;;;;;;;6.93;5.23;;;-3.90;99.90;-4.40;99367.00;;;;4964677;28;89186;-66
2023/11/29 04:26:34;;;;;;;8.73;5.60;;;-3.90;99.90;-4.50;99362.00;;;;4961206;28;87887;-67
2023/11/29 04:29:01;;;;;;;9.93;6.07;;;-3.90;99.90;-4.50;99357.00;;;;4962467;28;87674;-68
2023/11/29 04:31:29;;;;;;;7.80;5.63;;;-4.00;99.90;-4.50;99359.00;;;;4966474;28;96938;-67
2023/11/29 04:33:55;;;;;;;6.30;5.43;;;-4.00;99.90;-4.60;99356.00;;;;4964202;28;87461;-67
2023/11/29 04:36:21;;;;;;;9.87;6.33;;;-4.10;99.90;-4.60;99344.00;;;;4944563;28;87189;-66
2023/11/29 04:38:48;;;;;;;7.93;5.93;;;-4.00;99.90;-4.60;99344.00;;;;4966224;28;87999;-68
2023/11/29 04:41:15;;;;;;;8.50;6.50;;;-4.10;99.90;-4.60;99338.00;;;;4958039;28;88088;-68
2023/11/29 04:43:44;;;;;;;9.57;5.83;;;-3.90;99.90;-4.60;99340.00;;;;4964291;28;89112;-67
2023/11/29 04:46:11;;;;;;;8.77;5.67;;;-4.00;99.90;-4.60;99337.00;;;;4965519;28;87845;-67
2023/11/29 04:48:37;;;;;;;9.60;6.10;;;-4.00;99.90;-4.70;99338.00;;;;4963777;28;88016;-68
2023/11/29 04:51:03;;;;;;;8.60;5.60;;;-4.10;99.90;-4.70;99348.00;;;;4961611;28;103834;-69
2023/11/29 04:53:31;;;;;;;12.03;5.13;;;-3.30;99.90;-4.70;99344.00;;;;4963908;28;87812;-68
2023/11/29 04:55:57;;;;;;;9.50;5.47;;;-4.10;99.90;-4.70;99329.00;;;;4962664;28;109006;-69
2023/11/29 04:58:23;;;;;;;6.70;5.20;;;-4.20;99.90;-4.70;99338.00;;;;4968161;28;108216;-66
2023/11/29 05:00:50;;;;;;;6.60;5.63;;;-4.20;99.90;-4.70;99333.00;;;;4967639;28;116047;-68
2023/11/29 05:03:20;;;;;;;8.13;5.00;;;-4.00;99.90;-4.70;99324.00;;;;4947088;28;87340;-67
2023/11/29 05:05:46;;;;;;;8.13;5.47;;;-4.20;99.90;-4.70;99336.00;;;;4953159;28;86935;-69
2023/11/29 05:08:13;;;;;;;8.77;5.63;;;-4.10;99.90;-4.70;99325.00;;;;4966719;28;88340;-68
2023/11/29 05:10:39;;;;;;;8.53;6.03;;;-4.30;99.90;-4.70;99326.00;;;;4969058;28;87696;-66
2023/11/29 05:13:07;;;;;;;7.97;5.37;;;-4.30;99.90;-4.70;99332.00;;;;4961352;28;108167;-65
2023/11/29 05:15:34;;;;;;;9.63;5.70;;;-4.20;99.90;-4.70;99324.00;;;;4968416;28;88118;-66
2023/11/29 05:18:01;;;;;;;8.87;5.70;;;-4.20;99.90;-4.70;99319.00;;;;4966700;28;98245;-65
2023/11/29 05:20:27;;;;;;;7.80;5.23;;;-4.30;99.90;-4.70;99316.00;;;;4964466;28;89914;-66
2023/11/29 05:22:54;;;;;;;9.10;5.53;;;-4.20;99.90;-4.70;99324.00;;;;4970581;28;87649;-65
2023/11/29 05:25:20;;;;;;;8.83;5.97;;;-3.30;99.90;-4.70;99319.00;;;;4959693;28;87095;-66
2023/11/29 05:27:47;;;;;;;7.60;5.07;;;-4.10;99.90;-4.70;99316.00;;;;4964983;28;109390;-66
2023/11/29 05:30:15;;;;;;;8.13;5.13;;;-4.20;99.90;-4.70;99325.00;;;;4960425;28;87872;-65
2023/11/29 05:32:41;;;;;;;9.03;5.70;;;-4.10;99.90;-4.70;99322.00;;;;4964997;28;88902;-66
2023/11/29 05:35:07;;;;;;;8.17;4.90;;;-4.20;99.90;-4.70;99316.00;;;;4968093;28;87717;-66
2023/11/29 05:37:33;;;;;;;10.40;6.87;;;-4.00;99.90;-4.70;99315.00;;;;4962641;28;87779;-67
2023/11/29 05:39:58;;;;;;;8.43;5.20;;;-4.10;99.90;-4.70;99309.00;;;;4963640;28;88582;-67
2023/11/29 05:42:24;;;;;;;9.20;5.27;;;-4.10;99.90;-4.60;99296.00;;;;4959341;28;117423;-66
2023/11/29 05:44:53;;;;;;;9.23;5.40;;;-4.30;99.90;-4.70;99296.00;;;;4963986;28;110291;-66
2023/11/29 05:47:20;;;;;;;6.30;4.87;;;-4.20;99.90;-4.70;99295.00;;;;4970079;28;87670;-66
2023/11/29 05:49:47;;;;;;;4.90;4.13;;;-4.20;99.90;-4.70;99284.00;;;;4969974;28;92589;-66
2023/11/29 05:52:12;;;;;;;6.77;4.20;;;-4.10;99.90;-4.70;99288.00;;;;4955781;28;87735;-66
2023/11/29 05:54:38;;;;;;;4.73;4.27;;;-4.20;99.90;-4.70;99296.00;;;;4965135;28;109963;-67
2023/11/29 05:57:03;;;;;;;6.07;4.20;;;-4.10;99.90;-4.70;99292.00;;;;4968689;28;101760;-65
2023/11/29 05:59:29;;;;;;;7.47;4.33;;;-4.20;99.90;-4.70;99289.00;;;;4965939;28;116383;-65
2023/11/29 06:01:56;;;;;;;9.03;6.03;;;-4.10;99.90;-4.70;99283.00;;;;4967199;28;87329;-67
2023/11/29 06:04:21;;;;;;;8.03;4.93;;;-4.10;99.90;-4.70;99275.00;;;;4966011;28;89224;-67
2023/11/29 06:06:47;;;;;;;7.63;4.17;;;-4.10;99.90;-4.60;99283.00;;;;4963143;28;102362;-66
2023/11/29 06:09:14;;;;;;;5.33;3.80;;;-4.10;99.90;-4.60;99265.00;;;;4963389;28;88116;-66
2023/11/29 06:11:40;;;;;;;6.90;5.70;;;-4.20;99.90;-4.60;99277.00;;;;4970289;28;89229;-66
2023/11/29 06:14:06;;;;;;;9.97;6.90;;;-4.10;99.90;-4.60;99264.00;;;;4967541;28;86739;-67
2023/11/29 06:16:33;;;;;;;7.50;5.07;;;-4.00;99.90;-4.60;99265.00;;;;4967138;28;87105;-66
2023/11/29 06:19:00;;;;;;;6.97;4.53;;;-4.00;99.90;-4.50;99271.00;;;;4964318;28;87565;-66
2023/11/29 06:21:25;;;;;;;6.17;4.13;;;-4.10;99.90;-4.50;99260.00;;;;4949992;28;88387;-66
2023/11/29 06:23:51;;;;;;;5.13;3.93;;;-4.00;99.90;-4.40;99267.00;;;;4966670;28;109915;-66
2023/11/29 06:26:18;;;;;;;6.87;4.30;;;-3.90;99.90;-4.40;99276.00;;;;4969574;28;108625;-67
2023/11/29 06:28:44;;;;;;;7.97;4.10;;;-3.90;99.90;-4.40;99268.00;;;;4960236;28;88053;-67
2023/11/29 06:31:10;;;;;;;5.03;3.67;;;-3.90;99.90;-4.40;99267.00;;;;4968694;28;87971;-66
2023/11/29 06:33:35;;;;;;;5.83;4.37;;;-3.80;99.90;-4.30;99265.00;;;;4965261;28;109771;-66
2023/11/29 06:36:02;;;;;;;5.37;4.07;;;-3.90;99.90;-4.30;99257.00;;;;4948611;28;87232;-65
2023/11/29 06:38:28;;;;;;;5.33;3.50;;;-3.70;99.90;-4.30;99270.00;;;;4961939;28;88098;-65
2023/11/29 06:40:54;;;;;;;9.27;5.20;;;-3.80;99.90;-4.20;99260.00;;;;4960388;28;88209;-64
2023/11/29 06:43:20;;;;;;;5.90;3.57;;;-3.70;99.90;-4.20;99263.00;;;;4961504;28;102125;-65
2023/11/29 06:45:46;;;;;;;8.83;4.63;;;-3.70;99.90;-4.20;99259.00;;;;4962608;28;88930;-65
2023/11/29 06:48:12;;;;;;;10.60;7.07;;;-3.60;99.90;-4.20;99265.00;;;;4964500;28;88901;-67
2023/11/29 06:50:38;;;;;;;26.20;14.00;;;-3.70;99.90;-4.20;99270.00;;;;4966040;28;88121;-66
2023/11/29 06:53:04;;;;;;;11.60;8.53;;;-3.70;99.90;-4.10;99278.00;;;;4970808;28;87853;-64
2023/11/29 06:55:32;;;;;;;6.33;4.60;;;-3.70;99.90;-4.10;99279.00;;;;4963426;28;87882;-65
2023/11/29 06:58:01;;;;;;;25.07;11.77;;;-3.70;99.90;-4.10;99278.00;;;;4966101;28;88647;-65
2023/11/29 07:00:27;;;;;;;6.17;4.03;;;-3.60;99.90;-4.10;99270.00;;;;4968393;28;87693;-65
2023/11/29 07:02:53;;;;;;;5.50;3.50;;;-3.60;99.90;-4.00;99266.00;;;;4959700;28;87150;-65
2023/11/29 07:05:19;;;;;;;5.13;3.10;;;-3.50;99.90;-4.00;99278.00;;;;4969721;28;107197;-63
2023/11/29 07:07:47;;;;;;;4.23;2.77;;;-3.60;99.90;-4.00;99269.00;;;;4968046;28;104022;-64
2023/11/29 07:10:13;;;;;;;3.30;2.50;;;-3.60;99.90;-4.00;99268.00;;;;4963851;28;88567;-64
2023/11/29 07:12:39;;;;;;;5.07;4.50;;;-3.60;99.90;-4.00;99276.00;;;;4961526;28;88232;-64
2023/11/29 07:15:05;;;;;;;6.10;2.77;;;-3.50;99.90;-4.00;99282.00;;;;4965482;28;87441;-64
2023/11/29 07:17:31;;;;;;;3.63;3.00;;;-3.60;99.90;-4.00;99264.00;;;;4964162;28;87394;-64
2023/11/29 07:19:57;;;;;;;8.67;3.70;;;-3.60;99.90;-4.00;99281.00;;;;4958826;28;102713;-64
2023/11/29 07:22:25;;;;;;;3.77;3.00;;;-3.50;99.90;-3.90;99274.00;;;;4969412;28;87454;-64
2023/11/29 07:24:55;;;;;;;5.33;3.73;;;-3.40;99.90;-3.90;99281.00;;;;4964096;28;87610;-65
2023/11/29 07:27:21;;;;;;;5.20;3.10;;;-3.40;99.90;-3.90;99285.00;;;;4969899;28;87060;-64
2023/11/29 07:29:47;;;;;;;4.87;2.57;;;-3.40;99.90;-3.90;99283.00;;;;4960418;28;87767;-64
2023/11/29 07:32:14;;;;;;;4.43;3.20;;;-3.50;99.90;-3.80;99281.00;;;;4963324;28;87919;-64
2023/11/29 07:34:44;;;;;;;6.60;3.80;;;-3.30;99.90;-3.80;99284.00;;;;4963649;28;88601;-63
2023/11/29 07:37:11;;;;;;;6.30;3.53;;;-2.90;99.90;-3.80;99276.00;;;;4963493;28;88837;-65
2023/11/29 07:39:36;;;;;;;2.77;2.43;;;-2.50;99.90;-3.70;99264.00;;;;4965231;28;87549;-65
2023/11/29 07:42:02;;;;;;;2.80;2.20;;;-3.20;99.90;-3.70;99275.00;;;;4965992;28;110564;-62
2023/11/29 07:44:28;;;;;;;4.27;3.10;;;-3.20;99.90;-3.70;99281.00;;;;4965226;28;87636;-64
2023/11/29 07:46:54;;;;;;;5.17;3.20;;;-3.20;99.90;-3.60;99273.00;;;;4972635;28;88013;-63
2023/11/29 07:49:19;;;;;;;7.77;4.20;;;-3.10;99.90;-3.60;99276.00;;;;4963751;28;102688;-64
2023/11/29 07:51:45;;;;;;;6.17;3.80;;;-3.00;99.90;-3.50;99280.00;;;;4967298;28;105982;-65
2023/11/29 07:54:15;;;;;;;7.40;4.03;;;-3.00;99.90;-3.50;99280.00;;;;4965400;28;87635;-63
2023/11/29 07:56:42;;;;;;;5.53;3.67;;;-3.00;99.90;-3.40;99278.00;;;;4961620;28;87652;-64
2023/11/29 07:59:12;;;;;;;5.83;3.43;;;-3.00;99.90;-3.30;99280.00;;;;4966831;28;88849;-62
2023/11/29 08:01:39;;;;;;;5.37;3.10;;;-2.80;99.90;-3.30;99287.00;;;;4964920;28;87926;-64
2023/11/29 08:04:05;;;;;;;3.03;2.77;;;-2.90;99.90;-3.20;99269.00;;;;4966849;28;87549;-63
2023/11/29 08:06:31;;;;;;;3.93;2.50;;;-2.70;99.90;-3.20;99277.00;;;;4966662;28;110784;-63
2023/11/29 08:08:58;;;;;;;3.47;3.07;;;-2.80;99.90;-3.10;99279.00;;;;4972311;28;97667;-64
2023/11/29 08:11:23;;;;;;;3.63;2.80;;;-2.70;99.90;-3.00;99274.00;;;;4964698;28;87323;-63
2023/11/29 08:13:50;;;;;;;4.40;3.80;;;-2.60;99.90;-3.00;99267.00;;;;4957111;28;87449;-64
2023/11/29 08:16:16;;;;;;;3.93;3.00;;;-2.60;99.90;-3.00;99273.00;;;;4974328;28;88077;-64
2023/11/29 08:18:42;;;;;;;4.67;2.57;;;-2.60;99.90;-2.90;99265.00;;;;4974645;28;87557;-63
2023/11/29 08:21:08;;;;;;;4.63;3.10;;;-2.40;99.90;-2.80;99260.00;;;;4974682;28;98866;-63
2023/11/29 08:23:35;;;;;;;3.87;2.43;;;-2.40;99.90;-2.70;99268.00;;;;4967063;28;95161;-64
2023/11/29 08:26:00;;;;;;;4.37;2.73;;;-2.40;99.90;-2.70;99267.00;;;;4969295;28;88725;-62
2023/11/29 08:28:26;;;;;;;4.67;3.20;;;-2.30;99.90;-2.60;99262.00;;;;4966092;28;117731;-63
2023/11/29 08:30:52;;;;;;;3.53;2.57;;;-2.10;99.90;-2.60;99264.00;;;;4966117;28;88235;-64
2023/11/29 08:33:18;;;;;;;2.30;1.97;;;-2.30;99.90;-2.60;99273.00;;;;4968804;28;106895;-65
2023/11/29 08:35:45;;;;;;;5.70;4.00;;;-2.20;99.90;-2.50;99264.00;;;;4967947;28;89011;-64
2023/11/29 08:38:11;;;;;;;3.73;3.33;;;-2.00;99.90;-2.50;99263.00;;;;4964319;28;87999;-64
2023/11/29 08:40:36;;;;;;;4.13;2.67;;;-2.10;99.90;-2.40;99258.00;;;;4970842;28;86334;-63
2023/11/29 08:43:02;;;;;;;2.90;2.70;;;-2.00;99.90;-2.40;99257.00;;;;4962414;28;108904;-62
2023/11/29 08:45:28;;;;;;;4.73;3.20;;;-2.00;99.90;-2.40;99255.00;;;;4972841;28;87592;-65
2023/11/29 08:47:54;;;;;;;4.03;3.43;;;-1.20;99.90;-2.40;99269.00;;;;4965480;28;104182;-65
2023/11/29 08:50:20;;;;;;;4.67;3.80;;;-1.90;99.90;-2.40;99263.00;;;;4975235;28;87110;-63
2023/11/29 08:52:49;;;;;;;4.10;3.67;;;-1.90;99.90;-2.40;99256.00;;;;4970936;28;87530;-64
2023/11/29 08:55:15;;;;;;;6.37;4.43;;;-1.90;99.90;-2.30;99267.00;;;;4974516;28;88675;-64
2023/11/29 08:57:40;;;;;;;4.27;3.10;;;-2.00;99.90;-2.30;99260.00;;;;4964223;28;103957;-63
2023/11/29 09:00:09;;;;;;;3.67;1.97;;;-1.50;99.90;-2.20;99260.00;;;;4974443;28;98833;-64
2023/11/29 09:02:35;;;;;;;5.63;3.77;;;-1.90;99.90;-2.20;99251.00;;;;4971218;28;87601;-64
2023/11/29 09:05:04;;;;;;;6.73;4.27;;;-1.70;99.90;-2.20;99259.00;;;;4962531;28;87997;-63
2023/11/29 09:07:30;;;;;;;3.97;2.40;;;-1.60;99.90;-2.10;99273.00;;;;4966506;28;87868;-62
2023/11/29 09:09:58;;;;;;;2.13;1.67;;;-1.70;99.90;-2.10;99266.00;;;;4970031;28;101946;-63
2023/11/29 09:12:25;;;;;;;3.43;2.10;;;-1.70;99.90;-2.00;99258.00;;;;4971610;28;88468;-64
2023/11/29 09:14:55;;;;;;;2.97;2.07;;;-1.70;99.90;-2.00;99266.00;;;;4965095;28;88872;-63
2023/11/29 09:17:24;;;;;;;2.83;1.90;;;-1.60;99.90;-1.90;99240.00;;;;4965895;28;87602;-64
2023/11/29 09:19:51;;;;;;;3.07;2.57;;;-1.60;99.90;-1.90;99248.00;;;;4970431;28;87573;-64
2023/11/29 09:22:17;;;;;;;2.50;1.83;;;-1.50;99.90;-1.90;99244.00;;;;4971923;28;87596;-64
2023/11/29 09:24:44;;;;;;;2.30;2.07;;;-1.50;99.90;-1.80;99239.00;;;;4969917;28;87427;-64
2023/11/29 09:27:11;;;;;;;3.30;2.57;;;-1.40;99.90;-1.80;99242.00;;;;4969026;28;87577;-63
2023/11/29 09:29:38;;;;;;;3.37;2.87;;;-1.40;99.90;-1.80;99240.00;;;;4968294;28;87127;-63
2023/11/29 09:32:04;;;;;;;3.13;1.80;;;-1.40;99.90;-1.70;99252.00;;;;4967109;28;87773;-64
2023/11/29 09:34:30;;;;;;;2.67;2.40;;;-1.30;99.90;-1.70;99246.00;;;;4968132;28;88085;-64
2023/11/29 09:36:59;;;;;;;3.17;2.40;;;-1.30;99.90;-1.60;99231.00;;;;4972773;28;88698;-62
2023/11/29 09:39:29;;;;;;;3.13;2.37;;;-1.30;99.90;-1.60;99232.00;;;;4965090;28;87942;-64
2023/11/29 09:42:02;;;;;;;4.33;2.83;;;-1.20;99.90;-1.50;99223.00;;;;4965808;28;100969;-64
2023/11/29 09:44:28;;;;;;;4.47;2.57;;;-1.20;99.90;-1.50;99225.00;;;;4971746;28;88703;-64
2023/11/29 09:46:55;;;;;;;3.77;2.27;;;-1.10;99.90;-1.40;99228.00;;;;4964849;28;87631;-65
2023/11/29 09:49:22;;;;;;;5.60;2.70;;;-1.00;99.90;-1.40;99228.00;;;;4968341;28;87684;-65
2023/11/29 09:51:48;;;;;;;2.07;1.87;;;-0.90;99.90;-1.30;99218.00;;;;4976078;28;87551;-64
2023/11/29 09:54:13;;;;;;;2.40;2.20;;;-1.10;99.90;-1.30;99211.00;;;;4975028;28;87713;-65
2023/11/29 09:56:40;;;;;;;1.83;1.73;;;-1.00;99.90;-1.30;99198.00;;;;4976426;28;100491;-64
2023/11/29 09:59:06;;;;;;;4.20;2.40;;;-0.80;99.90;-1.20;99212.00;;;;4965991;28;87482;-63
2023/11/29 10:01:45;;;;;;;4.80;3.07;;;-0.80;99.90;-1.10;99204.00;;;;4963096;28;88318;-63
2023/11/29 10:04:12;;;;;;;6.67;5.17;;;-0.80;99.90;-1.10;99207.00;;;;4973612;28;88459;-63
2023/11/29 10:06:38;;;;;;;5.57;3.40;;;-0.80;99.90;-1.00;99204.00;;;;4966373;28;88303;-64
2023/11/29 10:09:06;;;;;;;5.10;3.23;;;-0.60;99.90;-0.90;99195.00;;;;4970911;28;87502;-65
2023/11/29 10:11:36;;;;;;;2.83;2.50;;;-0.70;99.90;-0.90;99197.00;;;;4960653;28;91491;-64
2023/11/29 10:14:04;;;;;;;4.40;3.67;;;-0.50;99.90;-0.80;99215.00;;;;4970430;28;87908;-65
2023/11/29 10:16:30;;;;;;;2.37;2.13;;;-0.60;99.90;-0.80;99192.00;;;;4971043;28;87763;-64
2023/11/29 10:18:56;;;;;;;5.17;3.40;;;-0.50;99.90;-0.70;99197.00;;;;4966556;28;88030;-64
2023/11/29 10:21:23;;;;;;;3.27;2.97;;;-0.40;99.90;-0.70;99189.00;;;;4969787;28;87827;-65
2023/11/29 10:23:49;;;;;;;4.67;2.40;;;-0.40;99.90;-0.70;99189.00;;;;4959572;28;88653;-64
2023/11/29 10:26:15;;;;;;;3.03;2.30;;;-0.40;99.90;-0.60;99187.00;;;;4964732;28;103566;-64
2023/11/29 10:28:41;;;;;;;4.00;3.60;;;-0.40;99.90;-0.60;99186.00;;;;4967790;28;110258;-63
2023/11/29 10:31:08;;;;;;;3.93;1.97;;;-0.30;99.90;-0.60;99188.00;;;;4971417;28;87998;-63
2023/11/29 10:33:34;;;;;;;3.43;3.13;;;-0.30;99.90;-0.60;99188.00;;;;4971943;28;88499;-65
2023/11/29 10:36:04;;;;;;;4.57;2.30;;;-0.30;99.90;-0.60;99193.00;;;;4965180;28;117493;-64
2023/11/29 10:38:43;;;;;;;4.23;2.43;;;-0.20;99.90;-0.60;99190.00;;;;4966646;28;87572;-65
2023/11/29 10:41:10;;;;;;;4.90;3.77;;;-0.20;99.90;-0.60;99187.00;;;;4964968;28;86934;-64
2023/11/29 10:43:38;;;;;;;3.50;2.50;;;-0.20;99.90;-0.50;99188.00;;;;4964946;28;86874;-65
2023/11/29 10:46:25;;;;;;;8.73;5.60;;;-0.20;99.90;-0.40;99174.00;;;;4965656;28;87629;-64
2023/11/29 10:49:18;;;;;;;6.03;3.13;;;-0.10;99.90;-0.30;99167.00;;;;4965512;28;88802;-64
2023/11/29 10:51:45;;;;;;;4.33;3.43;;;0.00;99.90;-0.10;99166.00;;;;4964374;28;88397;-65